Time;durP1;ratioP1;P1;durP2;ratioP2;P2;SDS_P1;SDS_P2;PMS_P1;PMS_P2;Temp;Humidity;BMP_temperature;BMP_pressure;BME280_temperature;BME280_humidity;BME280_pressure;Samples;Min_cycle;Max_cycle;Signal;HPM_P1;HPM_P2
2022/12/09 00:01:08;;;;;;;9.00;8.10;;;1.00;99.90;;;;;;5088408;28;20220;-73
2022/12/09 00:03:35;;;;;;;7.80;7.10;;;1.00;99.90;;;;;;5093880;28;20224;-73
2022/12/09 00:06:07;;;;;;;7.97;7.27;;;1.00;99.90;;;;;;5108251;28;20653;-73
2022/12/09 00:08:34;;;;;;;9.07;7.90;;;1.00;99.90;;;;;;5108820;28;20281;-73
2022/12/09 00:11:01;;;;;;;8.63;7.83;;;1.00;99.90;;;;;;5108262;28;20229;-74
2022/12/09 00:13:28;;;;;;;8.60;7.80;;;1.00;99.90;;;;;;5108049;28;20587;-73
2022/12/09 00:15:57;;;;;;;9.17;8.27;;;1.00;99.90;;;;;;5108378;28;20205;-73
2022/12/09 00:18:24;;;;;;;8.60;7.70;;;0.90;99.90;;;;;;5102771;28;20199;-74
2022/12/09 00:20:51;;;;;;;8.90;8.00;;;0.90;99.90;;;;;;5101594;28;20226;-74
2022/12/09 00:23:18;;;;;;;9.00;8.10;;;0.90;99.90;;;;;;5108387;28;20423;-74
2022/12/09 00:25:45;;;;;;;9.27;8.40;;;0.90;99.90;;;;;;5107765;28;20297;-72
2022/12/09 00:28:12;;;;;;;10.20;8.97;;;0.90;99.90;;;;;;5107513;28;20281;-72
2022/12/09 00:30:38;;;;;;;13.53;9.70;;;1.00;99.90;;;;;;5094369;28;20265;-72
2022/12/09 00:33:07;;;;;;;11.07;9.50;;;1.00;99.90;;;;;;5091483;28;20198;-72
2022/12/09 00:35:33;;;;;;;15.27;10.00;;;1.10;99.90;;;;;;5087940;28;20253;-72
2022/12/09 00:38:00;;;;;;;18.30;10.23;;;1.10;99.90;;;;;;5087600;28;20310;-72
2022/12/09 00:40:27;;;;;;;15.07;10.00;;;1.10;99.90;;;;;;5087249;28;20266;-72
2022/12/09 00:42:54;;;;;;;17.73;10.20;;;1.00;99.90;;;;;;5101187;28;20268;-72
2022/12/09 00:45:21;;;;;;;16.20;10.80;;;1.10;99.90;;;;;;5108277;28;20596;-72
2022/12/09 00:47:48;;;;;;;16.53;10.17;;;1.00;99.90;;;;;;5107565;28;20643;-72
2022/12/09 00:50:16;;;;;;;13.90;9.80;;;1.00;99.90;;;;;;5107431;28;20230;-72
2022/12/09 00:52:43;;;;;;;24.47;11.63;;;1.00;99.90;;;;;;5095526;28;20234;-72
2022/12/09 00:55:10;;;;;;;15.03;10.40;;;0.90;99.90;;;;;;5086863;28;20289;-73
2022/12/09 00:57:38;;;;;;;14.63;10.20;;;0.90;99.90;;;;;;5087474;28;20310;-73
2022/12/09 01:00:06;;;;;;;12.47;10.40;;;0.90;99.90;;;;;;5090890;28;20206;-72
2022/12/09 01:02:34;;;;;;;21.17;10.60;;;0.90;99.90;;;;;;5086987;28;20289;-72
2022/12/09 01:05:02;;;;;;;13.13;10.43;;;0.90;99.90;;;;;;5087045;28;20298;-72
2022/12/09 01:07:30;;;;;;;11.80;9.57;;;0.90;99.90;;;;;;5086953;28;20685;-74
2022/12/09 01:09:57;;;;;;;11.67;10.07;;;0.90;99.90;;;;;;5087040;28;20214;-73
2022/12/09 01:12:24;;;;;;;13.17;10.90;;;0.90;99.90;;;;;;5086921;28;20563;-72
2022/12/09 01:14:51;;;;;;;12.23;9.67;;;0.90;99.90;;;;;;5087534;28;20297;-73
2022/12/09 01:17:17;;;;;;;12.47;10.10;;;0.90;99.90;;;;;;5087232;28;20206;-72
2022/12/09 01:19:45;;;;;;;12.90;10.27;;;0.90;99.90;;;;;;5089320;28;20317;-72
2022/12/09 01:22:12;;;;;;;12.60;9.80;;;1.00;99.90;;;;;;5106944;28;20285;-73
2022/12/09 01:24:40;;;;;;;12.77;10.50;;;0.90;99.90;;;;;;5106676;28;20301;-72
2022/12/09 01:27:07;;;;;;;12.80;10.43;;;1.00;99.90;;;;;;5101792;28;20206;-72
2022/12/09 01:29:33;;;;;;;13.70;11.53;;;0.90;99.90;;;;;;5102928;28;20290;-72
2022/12/09 01:32:00;;;;;;;12.77;10.17;;;1.00;99.90;;;;;;5086839;28;20310;-72
2022/12/09 01:34:27;;;;;;;15.40;11.43;;;1.00;99.90;;;;;;5087373;28;20260;-73
2022/12/09 01:36:54;;;;;;;13.27;10.93;;;1.00;99.90;;;;;;5087214;28;20397;-74
2022/12/09 01:39:21;;;;;;;17.43;10.80;;;1.00;99.90;;;;;;5090023;28;20289;-73
2022/12/09 01:41:50;;;;;;;17.30;11.37;;;1.00;99.90;;;;;;5108675;28;20202;-73
2022/12/09 01:44:20;;;;;;;14.00;11.00;;;1.00;99.90;;;;;;5090825;28;20210;-73
2022/12/09 01:46:48;;;;;;;13.43;10.83;;;1.00;99.90;;;;;;5090637;28;20305;-73
2022/12/09 01:49:20;;;;;;;13.27;10.87;;;1.00;99.90;;;;;;5090906;28;20293;-73
2022/12/09 01:51:54;;;;;;;15.17;11.17;;;1.00;99.90;;;;;;5096984;28;20255;-73
2022/12/09 01:54:21;;;;;;;16.13;11.33;;;0.90;99.90;;;;;;5090586;28;20236;-73
2022/12/09 01:56:50;;;;;;;17.00;12.10;;;1.00;99.90;;;;;;5090852;28;20221;-74
2022/12/09 01:59:17;;;;;;;17.10;12.37;;;1.00;99.90;;;;;;5090440;28;20217;-74
2022/12/09 02:01:47;;;;;;;16.20;11.90;;;0.90;99.90;;;;;;5104649;28;20288;-73
2022/12/09 02:04:14;;;;;;;14.70;11.60;;;0.90;99.90;;;;;;5090851;28;20201;-74
2022/12/09 02:06:41;;;;;;;16.17;11.93;;;1.00;99.90;;;;;;5090652;28;20246;-73
2022/12/09 02:09:08;;;;;;;15.47;11.17;;;1.00;99.90;;;;;;5089856;28;20298;-73
2022/12/09 02:11:46;;;;;;;15.43;11.30;;;1.00;99.90;;;;;;5090394;28;20239;-73
2022/12/09 02:14:20;;;;;;;14.03;11.17;;;1.00;99.90;;;;;;5096539;28;20210;-74
2022/12/09 02:16:56;;;;;;;12.80;10.10;;;1.10;99.90;;;;;;5110867;28;20247;-74
2022/12/09 02:19:39;;;;;;;14.80;11.33;;;1.10;99.90;;;;;;5109390;28;20274;-74
2022/12/09 02:22:08;;;;;;;16.03;11.43;;;1.10;99.90;;;;;;5100162;28;20232;-74
2022/12/09 02:24:43;;;;;;;15.77;12.37;;;1.10;99.90;;;;;;5101966;28;20237;-73
2022/12/09 02:27:16;;;;;;;15.37;11.60;;;1.10;99.90;;;;;;5105841;28;20209;-74
2022/12/09 02:29:59;;;;;;;13.77;11.20;;;1.10;99.90;;;;;;5110270;28;20230;-74
2022/12/09 02:32:53;;;;;;;13.53;11.60;;;1.00;99.90;;;;;;5110078;28;20293;-73
2022/12/09 02:35:27;;;;;;;14.43;10.70;;;1.10;99.90;;;;;;5109827;28;20292;-73
2022/12/09 02:37:58;;;;;;;14.87;10.43;;;1.10;99.90;;;;;;5109911;28;20272;-73
2022/12/09 02:40:29;;;;;;;11.80;9.70;;;1.10;99.90;;;;;;5109654;28;20918;-73
2022/12/09 02:42:57;;;;;;;13.27;9.80;;;1.10;99.90;;;;;;5098791;28;20240;-73
2022/12/09 02:45:27;;;;;;;11.53;9.50;;;1.10;99.90;;;;;;5089865;28;20315;-73
2022/12/09 02:47:55;;;;;;;14.53;11.00;;;1.10;99.90;;;;;;5089552;28;20294;-73
2022/12/09 02:50:27;;;;;;;12.20;10.30;;;1.10;99.90;;;;;;5097185;28;20240;-72
2022/12/09 02:52:56;;;;;;;13.90;9.80;;;1.10;99.90;;;;;;5109399;28;20612;-72
2022/12/09 02:55:23;;;;;;;12.77;10.03;;;1.00;99.90;;;;;;5109660;28;20682;-72
2022/12/09 02:57:56;;;;;;;12.03;9.60;;;1.10;99.90;;;;;;5110088;28;20206;-72
2022/12/09 03:00:23;;;;;;;12.27;9.90;;;1.00;99.90;;;;;;5108968;28;20644;-72
2022/12/09 03:02:54;;;;;;;10.53;9.43;;;1.00;99.90;;;;;;5100281;28;20282;-73
2022/12/09 03:05:30;;;;;;;12.00;9.50;;;0.90;99.90;;;;;;5089846;28;20285;-73
2022/12/09 03:08:07;;;;;;;11.13;9.50;;;1.00;99.90;;;;;;5089330;28;20286;-72
2022/12/09 03:10:39;;;;;;;11.00;9.07;;;0.90;99.90;;;;;;5088719;28;20298;-72
2022/12/09 03:13:11;;;;;;;13.67;10.07;;;0.90;99.90;;;;;;5100643;28;20281;-72
2022/12/09 03:15:41;;;;;;;10.57;9.17;;;0.90;99.90;;;;;;5109530;28;20277;-72
2022/12/09 03:18:13;;;;;;;11.03;9.53;;;1.00;99.90;;;;;;5108147;28;20191;-73
2022/12/09 03:20:43;;;;;;;10.47;9.33;;;0.90;99.90;;;;;;5109312;28;20670;-73
2022/12/09 03:23:13;;;;;;;10.27;8.93;;;0.90;99.90;;;;;;5095281;28;20665;-73
2022/12/09 03:25:43;;;;;;;12.43;9.10;;;0.90;99.90;;;;;;5088779;28;20650;-73
2022/12/09 03:28:15;;;;;;;11.30;9.00;;;0.90;99.90;;;;;;5102186;28;20298;-73
2022/12/09 03:30:45;;;;;;;10.47;9.23;;;0.80;99.90;;;;;;5107619;28;20218;-73
2022/12/09 03:33:15;;;;;;;10.73;9.57;;;0.80;99.90;;;;;;5107083;28;20586;-73
2022/12/09 03:35:46;;;;;;;10.53;8.63;;;0.80;99.90;;;;;;5107474;28;20249;-73
2022/12/09 03:38:18;;;;;;;10.20;8.57;;;0.80;99.90;;;;;;5107009;28;20277;-73
2022/12/09 03:40:49;;;;;;;10.50;9.20;;;0.80;99.90;;;;;;5106574;28;20338;-74
2022/12/09 03:43:22;;;;;;;9.97;8.97;;;0.70;99.90;;;;;;5088244;28;20813;-74
2022/12/09 03:45:51;;;;;;;9.73;8.77;;;0.80;99.90;;;;;;5088879;28;20305;-74
2022/12/09 03:48:18;;;;;;;10.67;8.80;;;0.80;99.90;;;;;;5101222;28;20324;-74
2022/12/09 03:50:52;;;;;;;10.07;9.07;;;0.80;99.90;;;;;;5101305;28;20202;-74
2022/12/09 03:53:22;;;;;;;12.77;9.63;;;0.80;99.90;;;;;;5108271;28;20282;-74
2022/12/09 03:55:57;;;;;;;10.57;9.10;;;0.80;99.90;;;;;;5108698;28;20288;-75
2022/12/09 03:58:26;;;;;;;11.33;9.30;;;0.80;99.90;;;;;;5108775;28;20190;-74
2022/12/09 04:00:53;;;;;;;11.10;9.10;;;0.80;99.90;;;;;;5108770;28;20354;-74
2022/12/09 04:03:21;;;;;;;11.03;9.03;;;0.80;99.90;;;;;;5107946;28;20210;-73
2022/12/09 04:05:49;;;;;;;10.17;8.50;;;0.80;99.90;;;;;;5108595;28;20913;-74
2022/12/09 04:08:16;;;;;;;9.77;8.53;;;0.80;99.90;;;;;;5108483;28;20248;-74
2022/12/09 04:10:43;;;;;;;10.83;9.13;;;0.80;99.90;;;;;;5108043;28;20734;-75
2022/12/09 04:13:10;;;;;;;11.83;9.10;;;0.80;99.90;;;;;;5108547;28;20622;-74
2022/12/09 04:15:37;;;;;;;10.70;8.67;;;0.80;99.90;;;;;;5089133;28;20576;-74
2022/12/09 04:18:04;;;;;;;9.67;8.73;;;0.90;99.90;;;;;;5090203;28;20237;-74
2022/12/09 04:20:31;;;;;;;9.70;8.43;;;0.80;99.90;;;;;;5108483;28;20275;-74
2022/12/09 04:22:59;;;;;;;10.40;8.60;;;0.70;99.90;;;;;;5108173;28;20212;-74
2022/12/09 04:25:26;;;;;;;9.63;8.63;;;0.70;99.90;;;;;;5108144;28;20288;-74
2022/12/09 04:27:53;;;;;;;9.80;8.53;;;0.70;99.90;;;;;;5108151;28;20738;-74
2022/12/09 04:30:20;;;;;;;10.20;9.10;;;0.60;99.90;;;;;;5107813;28;20289;-74
2022/12/09 04:32:47;;;;;;;10.60;8.70;;;0.60;99.90;;;;;;5108166;28;20741;-74
2022/12/09 04:35:14;;;;;;;9.20;8.10;;;0.60;99.90;;;;;;5107848;28;20292;-74
2022/12/09 04:37:41;;;;;;;9.77;8.30;;;0.70;99.90;;;;;;5108368;28;20308;-74
2022/12/09 04:40:10;;;;;;;12.63;9.43;;;0.70;99.90;;;;;;5107479;28;20651;-74
2022/12/09 04:42:37;;;;;;;9.57;8.60;;;0.70;99.90;;;;;;5107857;28;20711;-74
2022/12/09 04:45:04;;;;;;;11.83;9.50;;;0.60;99.90;;;;;;5107712;28;20206;-74
2022/12/09 04:47:33;;;;;;;10.97;8.70;;;0.60;99.90;;;;;;5100882;28;20289;-74
2022/12/09 04:50:00;;;;;;;11.03;8.97;;;0.60;99.90;;;;;;5091926;28;20245;-74
2022/12/09 04:52:26;;;;;;;9.67;8.50;;;0.70;99.90;;;;;;5107875;28;20317;-74
2022/12/09 04:54:53;;;;;;;8.73;7.83;;;0.80;99.90;;;;;;5107596;28;20690;-74
2022/12/09 04:57:22;;;;;;;10.33;8.10;;;0.80;99.90;;;;;;5107561;28;20245;-74
2022/12/09 04:59:48;;;;;;;9.93;8.50;;;0.80;99.90;;;;;;5107767;28;20293;-74
2022/12/09 05:02:15;;;;;;;9.30;8.23;;;0.80;99.90;;;;;;5107983;28;20210;-74
2022/12/09 05:04:45;;;;;;;9.13;8.23;;;0.90;99.90;;;;;;5107856;28;20285;-74
2022/12/09 05:07:12;;;;;;;9.90;8.63;;;0.90;99.90;;;;;;5107258;28;20673;-74
2022/12/09 05:09:39;;;;;;;8.70;7.80;;;0.90;99.90;;;;;;5106415;28;20293;-74
2022/12/09 05:12:06;;;;;;;9.43;8.43;;;0.80;99.90;;;;;;5086987;28;20241;-74
2022/12/09 05:14:35;;;;;;;9.73;8.57;;;0.80;99.90;;;;;;5090018;28;20286;-74
2022/12/09 05:17:02;;;;;;;9.93;8.63;;;0.80;99.90;;;;;;5090932;28;20753;-74
2022/12/09 05:22:51;;;;;;;9.33;8.23;;;0.70;99.90;;;;;;5095001;28;20253;-74
2022/12/09 05:25:18;;;;;;;11.00;9.03;;;0.70;99.90;;;;;;5101900;28;20660;-74
2022/12/09 05:27:45;;;;;;;10.87;8.87;;;0.70;99.90;;;;;;5111652;28;20241;-74
2022/12/09 05:30:14;;;;;;;11.73;9.13;;;0.70;99.90;;;;;;5111521;28;20276;-74
2022/12/09 05:32:41;;;;;;;9.33;8.33;;;0.70;99.90;;;;;;5111243;28;20229;-74
2022/12/09 05:35:09;;;;;;;11.27;8.83;;;0.70;99.90;;;;;;5111316;28;20297;-74
2022/12/09 05:37:35;;;;;;;10.63;8.93;;;0.70;99.90;;;;;;5111449;28;20245;-74
2022/12/09 05:40:02;;;;;;;10.70;9.07;;;0.80;99.90;;;;;;5110739;28;20265;-74
2022/12/09 05:42:29;;;;;;;10.43;9.03;;;0.80;99.90;;;;;;5104744;28;20317;-74
2022/12/09 05:44:56;;;;;;;9.70;8.67;;;0.80;99.90;;;;;;5111098;28;20295;-74
2022/12/09 05:47:24;;;;;;;11.83;10.03;;;0.80;99.90;;;;;;5105415;28;20290;-74
2022/12/09 05:49:51;;;;;;;10.60;9.50;;;0.80;99.90;;;;;;5097665;28;20289;-74
2022/12/09 05:52:18;;;;;;;11.90;10.53;;;0.80;99.90;;;;;;5111312;28;20237;-74
2022/12/09 05:54:45;;;;;;;11.67;10.17;;;0.90;99.90;;;;;;5110843;28;20229;-74
2022/12/09 05:57:12;;;;;;;11.17;9.93;;;0.90;99.90;;;;;;5110937;28;20205;-74
2022/12/09 05:59:39;;;;;;;11.47;9.80;;;0.90;99.90;;;;;;5111004;28;20301;-74
2022/12/09 06:02:06;;;;;;;11.37;9.53;;;0.90;99.90;;;;;;5110614;28;20699;-74
2022/12/09 06:04:35;;;;;;;10.87;8.90;;;0.80;99.90;;;;;;5111274;28;20290;-74
2022/12/09 06:07:02;;;;;;;9.87;8.87;;;0.90;99.90;;;;;;5104191;28;20306;-74
2022/12/09 06:09:28;;;;;;;14.57;10.80;;;0.90;99.90;;;;;;5110749;28;20293;-74
2022/12/09 06:11:55;;;;;;;11.37;10.10;;;0.90;99.90;;;;;;5097023;28;20326;-74
2022/12/09 06:14:22;;;;;;;17.33;11.30;;;0.90;99.90;;;;;;5090361;28;20238;-74
2022/12/09 06:16:49;;;;;;;13.77;10.10;;;0.90;99.90;;;;;;5090137;28;20677;-74
2022/12/09 06:19:16;;;;;;;13.63;10.33;;;0.90;99.90;;;;;;5107587;28;20226;-74
2022/12/09 06:21:44;;;;;;;16.73;11.70;;;0.90;99.90;;;;;;5110286;28;20310;-74
2022/12/09 06:24:11;;;;;;;17.60;11.80;;;0.90;99.90;;;;;;5110025;28;20202;-74
2022/12/09 06:26:38;;;;;;;16.63;10.77;;;1.00;99.90;;;;;;5109727;28;20242;-74
2022/12/09 06:29:05;;;;;;;17.37;13.20;;;1.00;99.90;;;;;;5110075;28;20209;-74
2022/12/09 06:31:32;;;;;;;20.20;12.07;;;1.00;99.90;;;;;;5110316;28;20229;-74
2022/12/09 06:33:59;;;;;;;15.20;11.27;;;1.00;99.90;;;;;;5110330;28;20275;-74
2022/12/09 06:36:27;;;;;;;17.60;11.97;;;1.00;99.90;;;;;;5110051;28;20294;-74
2022/12/09 06:38:56;;;;;;;17.03;11.80;;;1.00;99.90;;;;;;5109681;28;20644;-74
2022/12/09 06:41:23;;;;;;;19.33;11.77;;;1.00;99.90;;;;;;5110044;28;20634;-74
2022/12/09 06:43:50;;;;;;;20.03;12.23;;;1.00;99.90;;;;;;5109999;28;20332;-74
2022/12/09 06:46:18;;;;;;;19.50;12.63;;;1.00;99.90;;;;;;5102297;28;20298;-74
2022/12/09 06:48:46;;;;;;;20.80;12.27;;;1.00;99.90;;;;;;5089461;28;20290;-74
2022/12/09 06:51:14;;;;;;;20.97;13.40;;;1.00;99.90;;;;;;5104187;28;20328;-74
2022/12/09 06:53:41;;;;;;;26.20;14.27;;;1.00;99.90;;;;;;5109713;28;20276;-74
2022/12/09 06:56:11;;;;;;;21.43;13.47;;;1.00;99.90;;;;;;5109664;27;20209;-74
2022/12/09 06:58:39;;;;;;;27.40;13.47;;;1.10;99.90;;;;;;5110161;28;20213;-74
2022/12/09 07:01:07;;;;;;;22.90;13.00;;;1.10;99.90;;;;;;5109565;28;20545;-74
2022/12/09 07:03:34;;;;;;;29.47;15.93;;;1.10;99.90;;;;;;5103562;27;20239;-74
2022/12/09 07:06:01;;;;;;;31.17;17.10;;;1.00;99.90;;;;;;5088941;28;20677;-74
2022/12/09 07:08:28;;;;;;;43.10;16.57;;;1.00;99.90;;;;;;5105390;28;20318;-74
2022/12/09 07:10:55;;;;;;;35.57;15.47;;;1.00;99.90;;;;;;5109316;28;20205;-74
2022/12/09 07:13:23;;;;;;;31.73;14.47;;;1.00;99.90;;;;;;5109865;28;20321;-74
2022/12/09 07:15:50;;;;;;;31.20;14.63;;;1.00;99.90;;;;;;5089152;28;20250;-74
2022/12/09 07:18:20;;;;;;;39.63;15.70;;;1.00;99.90;;;;;;5103717;28;20212;-74
2022/12/09 07:20:47;;;;;;;23.97;13.30;;;1.00;99.90;;;;;;5109172;28;20316;-74
2022/12/09 07:23:14;;;;;;;25.70;13.83;;;1.00;99.90;;;;;;5109103;28;20251;-74
2022/12/09 07:25:41;;;;;;;21.73;13.60;;;1.10;99.90;;;;;;5109186;28;20293;-74
2022/12/09 07:28:08;;;;;;;31.17;14.60;;;1.20;99.90;;;;;;5109340;28;20293;-74
2022/12/09 07:30:38;;;;;;;28.60;14.27;;;1.30;99.90;;;;;;5108971;28;20204;-74
2022/12/09 07:33:05;;;;;;;27.93;12.83;;;1.30;99.90;;;;;;5108919;28;20673;-74
2022/12/09 07:35:32;;;;;;;24.33;14.13;;;1.30;99.90;;;;;;5109204;28;20237;-74
2022/12/09 07:37:59;;;;;;;24.67;13.70;;;1.30;99.90;;;;;;5108554;28;20808;-74
2022/12/09 07:40:25;;;;;;;25.60;13.47;;;1.40;99.90;;;;;;5108896;28;20255;-74
2022/12/09 07:42:52;;;;;;;28.17;14.20;;;1.40;99.90;;;;;;5108956;28;20248;-74
2022/12/09 07:45:19;;;;;;;47.83;13.67;;;1.40;99.90;;;;;;5108908;28;20313;-74
2022/12/09 07:47:47;;;;;;;25.33;13.17;;;1.30;99.90;;;;;;5109048;28;20290;-74
2022/12/09 07:50:14;;;;;;;24.27;12.60;;;1.30;99.90;;;;;;5108672;28;20676;-74
2022/12/09 07:52:41;;;;;;;24.17;12.70;;;1.20;99.90;;;;;;5108517;28;20265;-74
2022/12/09 07:55:09;;;;;;;42.43;13.97;;;1.20;99.90;;;;;;5108087;28;20787;-74
2022/12/09 07:57:36;;;;;;;44.53;14.70;;;1.20;99.90;;;;;;5108387;28;20664;-74
2022/12/09 08:00:05;;;;;;;50.97;14.47;;;1.20;99.90;;;;;;5100366;28;20242;-74
2022/12/09 08:02:32;;;;;;;26.53;13.70;;;1.10;99.90;;;;;;5088385;28;20210;-74
2022/12/09 08:05:01;;;;;;;51.83;14.57;;;1.10;99.90;;;;;;5106204;28;20203;-74
2022/12/09 08:07:28;;;;;;;32.73;13.70;;;1.10;99.90;;;;;;5108528;28;20206;-74
2022/12/09 08:09:55;;;;;;;27.97;13.70;;;1.10;99.90;;;;;;5108262;28;20297;-74
2022/12/09 08:12:22;;;;;;;29.23;13.93;;;1.10;99.90;;;;;;5108513;28;20244;-74
2022/12/09 08:14:49;;;;;;;51.23;19.33;;;1.10;99.90;;;;;;5108190;28;20744;-74
2022/12/09 08:17:17;;;;;;;41.23;15.53;;;1.00;99.90;;;;;;5108741;28;20375;-74
2022/12/09 08:19:44;;;;;;;27.90;14.47;;;1.10;99.90;;;;;;5108281;28;20306;-74
2022/12/09 08:22:12;;;;;;;48.20;15.67;;;1.10;99.90;;;;;;5108559;28;20293;-74
2022/12/09 08:24:39;;;;;;;34.27;14.13;;;1.10;99.90;;;;;;5107951;28;20294;-74
2022/12/09 08:27:06;;;;;;;33.37;15.13;;;1.10;99.90;;;;;;5108532;28;20206;-74
2022/12/09 08:29:33;;;;;;;28.63;13.93;;;1.10;99.90;;;;;;5107869;28;20293;-74
2022/12/09 08:31:59;;;;;;;32.47;14.07;;;1.10;99.90;;;;;;5108012;28;20293;-74
2022/12/09 08:34:26;;;;;;;30.60;14.40;;;1.10;99.90;;;;;;5108072;28;20296;-74
2022/12/09 08:36:53;;;;;;;37.67;14.87;;;1.10;99.90;;;;;;5107735;28;20703;-74
2022/12/09 08:39:22;;;;;;;28.10;13.63;;;1.00;99.90;;;;;;5107738;28;20206;-74
2022/12/09 08:41:48;;;;;;;73.37;15.00;;;1.00;99.90;;;;;;5107922;28;20292;-74
2022/12/09 08:44:18;;;;;;;37.27;15.13;;;1.00;99.90;;;;;;5108051;28;20841;-73
2022/12/09 08:46:47;;;;;;;27.77;14.07;;;1.10;99.90;;;;;;5107894;28;20248;-74
2022/12/09 08:49:16;;;;;;;34.00;14.97;;;1.10;99.90;;;;;;5107283;28;20285;-74
2022/12/09 08:51:44;;;;;;;40.03;15.50;;;1.10;99.90;;;;;;5107801;28;20209;-74
2022/12/09 08:54:11;;;;;;;27.10;13.80;;;1.10;99.90;;;;;;5107082;28;20277;-74
2022/12/09 08:56:39;;;;;;;27.33;14.57;;;1.10;99.90;;;;;;5107777;28;20245;-74
2022/12/09 08:59:06;;;;;;;44.57;14.80;;;1.20;99.90;;;;;;5107380;28;20248;-74
2022/12/09 09:01:33;;;;;;;22.80;13.67;;;1.20;99.90;;;;;;5087425;28;20289;-74
2022/12/09 09:04:01;;;;;;;25.50;14.40;;;1.20;99.90;;;;;;5087232;28;20210;-74
2022/12/09 09:06:28;;;;;;;46.40;15.07;;;1.10;99.90;;;;;;5091594;28;20285;-74
2022/12/09 09:08:56;;;;;;;21.93;13.17;;;1.10;99.90;;;;;;5107340;28;20639;-74
2022/12/09 09:11:23;;;;;;;21.50;13.07;;;1.10;99.90;;;;;;5107476;28;20255;-74
2022/12/09 09:13:51;;;;;;;22.03;13.00;;;1.10;99.90;;;;;;5107335;28;20310;-74
2022/12/09 09:16:21;;;;;;;21.67;12.10;;;1.10;99.90;;;;;;5107547;28;20297;-74
2022/12/09 09:18:49;;;;;;;20.63;12.77;;;1.20;99.90;;;;;;5107541;28;20283;-74
2022/12/09 09:21:18;;;;;;;18.67;12.33;;;1.20;99.90;;;;;;5106977;28;20293;-74
2022/12/09 09:23:46;;;;;;;19.63;12.00;;;1.20;99.90;;;;;;5107484;28;20313;-74
2022/12/09 09:26:14;;;;;;;19.77;12.43;;;1.30;99.90;;;;;;5107036;28;20735;-74
2022/12/09 09:28:41;;;;;;;18.30;12.00;;;1.30;99.90;;;;;;5107140;28;20297;-74
2022/12/09 09:31:22;;;;;;;15.13;10.37;;;1.30;99.90;;;;;;5107177;28;20241;-74
2022/12/09 09:33:49;;;;;;;18.10;11.10;;;1.30;99.90;;;;;;5107519;28;20716;-74
2022/12/09 09:36:19;;;;;;;17.23;11.20;;;1.40;99.90;;;;;;5106969;28;20206;-74
2022/12/09 09:38:46;;;;;;;16.17;10.20;;;1.40;99.90;;;;;;5107185;28;20214;-74
2022/12/09 09:41:23;;;;;;;15.27;10.87;;;1.40;99.90;;;;;;5106785;28;20230;-74
2022/12/09 09:43:51;;;;;;;15.40;10.73;;;1.40;99.90;;;;;;5106935;28;20738;-74
2022/12/09 09:46:24;;;;;;;15.13;10.63;;;1.40;99.90;;;;;;5107435;28;20288;-74
2022/12/09 09:48:52;;;;;;;16.23;11.27;;;1.50;99.90;;;;;;5094877;28;20677;-74
2022/12/09 09:51:21;;;;;;;17.77;11.33;;;1.50;99.90;;;;;;5102913;28;20237;-74
2022/12/09 09:53:51;;;;;;;15.57;11.57;;;1.50;99.90;;;;;;5104952;28;20324;-74
2022/12/09 09:56:26;;;;;;;16.53;11.87;;;1.50;99.90;;;;;;5106606;28;20706;-74
2022/12/09 09:58:59;;;;;;;16.70;11.83;;;1.50;99.90;;;;;;5107231;28;20197;-74
2022/12/09 10:01:34;;;;;;;20.60;13.00;;;1.50;99.90;;;;;;5109210;28;20221;-74
2022/12/09 10:04:07;;;;;;;19.67;12.50;;;1.50;99.90;;;;;;5110340;28;20209;-75
2022/12/09 10:06:43;;;;;;;15.60;11.67;;;1.50;99.90;;;;;;5110866;28;20286;-74
2022/12/09 10:09:17;;;;;;;16.50;11.63;;;1.50;99.90;;;;;;5110336;28;20206;-74
2022/12/09 10:11:57;;;;;;;15.57;10.33;;;1.50;99.90;;;;;;5110622;28;20288;-74
2022/12/09 10:14:35;;;;;;;17.53;11.50;;;1.50;99.90;;;;;;5110750;28;20249;-74
2022/12/09 10:17:15;;;;;;;17.07;11.73;;;1.50;99.90;;;;;;5110702;28;20281;-74
2022/12/09 10:19:45;;;;;;;19.13;11.83;;;1.50;99.90;;;;;;5108459;28;20316;-74
2022/12/09 10:22:15;;;;;;;16.83;11.87;;;1.50;99.90;;;;;;5094101;28;20281;-74
2022/12/09 10:24:47;;;;;;;17.23;12.13;;;1.50;99.90;;;;;;5110737;28;20233;-74
2022/12/09 10:27:25;;;;;;;16.73;11.57;;;1.50;99.90;;;;;;5110575;28;20614;-74
2022/12/09 10:29:57;;;;;;;16.57;11.57;;;1.50;99.90;;;;;;5110569;28;20201;-74
2022/12/09 10:32:29;;;;;;;18.77;12.20;;;1.50;99.90;;;;;;5110572;28;20236;-74
2022/12/09 10:34:57;;;;;;;17.37;11.97;;;1.60;99.90;;;;;;5110457;28;20218;-74
2022/12/09 10:37:27;;;;;;;17.03;11.23;;;1.60;99.90;;;;;;5110360;28;20645;-74
2022/12/09 10:40:01;;;;;;;15.07;11.03;;;1.60;99.90;;;;;;5109958;28;20426;-74
2022/12/09 10:45:15;;;;;;;14.93;10.87;;;1.60;99.90;;;;;;5109912;28;20216;-74
2022/12/09 10:47:51;;;;;;;14.70;11.73;;;1.50;99.90;;;;;;5107109;28;20289;-74
2022/12/09 10:50:31;;;;;;;16.17;11.07;;;1.60;99.90;;;;;;5109992;28;20209;-75
2022/12/09 10:53:05;;;;;;;13.50;10.57;;;1.60;99.90;;;;;;5098505;28;20217;-74
2022/12/09 10:55:36;;;;;;;11.53;9.63;;;1.60;99.90;;;;;;5089653;28;20289;-74
2022/12/09 10:58:17;;;;;;;16.93;10.73;;;1.60;99.90;;;;;;5089557;28;20293;-74
2022/12/09 11:00:57;;;;;;;13.07;9.47;;;1.60;99.90;;;;;;5108592;28;20274;-74
2022/12/09 11:03:28;;;;;;;13.50;9.60;;;1.60;99.90;;;;;;5094413;28;20262;-74
2022/12/09 11:05:57;;;;;;;11.10;8.97;;;1.60;99.90;;;;;;5089822;28;20194;-74
2022/12/09 11:08:24;;;;;;;11.50;8.93;;;1.50;99.90;;;;;;5089474;28;20211;-74
2022/12/09 11:10:51;;;;;;;13.30;9.70;;;1.50;99.90;;;;;;5089098;28;20203;-74
2022/12/09 11:13:20;;;;;;;15.07;10.97;;;1.50;99.90;;;;;;5095192;28;20226;-74
2022/12/09 11:15:52;;;;;;;13.03;9.23;;;1.50;99.90;;;;;;5109600;28;20347;-74
2022/12/09 11:18:24;;;;;;;12.27;9.20;;;1.50;99.90;;;;;;5109582;28;20197;-74
2022/12/09 11:20:56;;;;;;;12.70;9.83;;;1.40;99.90;;;;;;5097628;28;20643;-75
2022/12/09 11:23:24;;;;;;;11.90;9.70;;;1.50;99.90;;;;;;5088995;28;20232;-74
2022/12/09 11:25:53;;;;;;;12.53;9.60;;;1.40;99.90;;;;;;5088886;28;20238;-74
2022/12/09 11:28:25;;;;;;;12.97;8.93;;;1.50;99.90;;;;;;5103462;28;20206;-74
2022/12/09 11:30:55;;;;;;;12.90;9.67;;;1.60;99.90;;;;;;5109343;28;20233;-75
2022/12/09 11:33:28;;;;;;;11.53;9.43;;;1.60;99.90;;;;;;5109471;28;20317;-74
2022/12/09 11:36:02;;;;;;;14.23;9.97;;;1.70;99.90;;;;;;5109393;28;20314;-74
2022/12/09 11:38:38;;;;;;;11.87;9.47;;;1.70;99.90;;;;;;5109105;28;20193;-74
2022/12/09 11:44:00;;;;;;;11.93;9.80;;;1.70;99.90;;;;;;5108270;28;20209;-75
2022/12/09 11:46:30;;;;;;;14.17;10.83;;;1.70;99.90;;;;;;5089095;28;20297;-74
2022/12/09 11:49:00;;;;;;;14.80;10.67;;;1.60;99.90;;;;;;5097694;28;20289;-74
2022/12/09 11:51:32;;;;;;;13.30;10.10;;;1.60;99.90;;;;;;5108767;28;20213;-74
2022/12/09 11:54:02;;;;;;;14.60;10.40;;;1.60;99.90;;;;;;5108664;28;20244;-74
2022/12/09 11:56:30;;;;;;;13.47;9.97;;;1.60;99.90;;;;;;5094468;28;20644;-74
2022/12/09 11:59:01;;;;;;;14.80;10.37;;;1.60;99.90;;;;;;5097961;28;20745;-74
2022/12/09 12:01:39;;;;;;;15.73;10.50;;;1.70;99.90;;;;;;5108804;28;20700;-74
2022/12/09 12:04:10;;;;;;;14.60;10.67;;;1.70;99.90;;;;;;5109233;28;20290;-75
2022/12/09 12:06:45;;;;;;;15.13;11.60;;;1.80;99.90;;;;;;5108673;28;20241;-74
2022/12/09 12:09:16;;;;;;;18.27;12.60;;;1.80;99.90;;;;;;5104992;28;20245;-74
2022/12/09 12:11:50;;;;;;;16.97;12.33;;;1.70;99.90;;;;;;5088650;28;20282;-72
2022/12/09 12:14:21;;;;;;;19.23;13.37;;;1.80;99.90;;;;;;5088038;28;20219;-72
2022/12/09 12:16:54;;;;;;;17.93;12.50;;;1.80;99.90;;;;;;5108602;28;20609;-75
2022/12/09 12:19:26;;;;;;;17.63;13.07;;;1.70;99.90;;;;;;5108871;28;20254;-75
2022/12/09 12:22:10;;;;;;;16.97;12.40;;;1.70;99.90;;;;;;5088056;28;20242;-75
2022/12/09 12:25:00;;;;;;;16.83;11.90;;;1.70;99.90;;;;;;5101379;28;20197;-75
2022/12/09 12:27:41;;;;;;;16.60;10.90;;;1.70;99.90;;;;;;5108524;28;20191;-75
2022/12/09 12:30:12;;;;;;;21.27;12.60;;;1.70;99.90;;;;;;5108324;28;20225;-73
2022/12/09 12:32:57;;;;;;;17.60;12.67;;;1.70;99.90;;;;;;5106180;28;20289;-74
2022/12/09 12:35:48;;;;;;;17.10;11.90;;;1.70;99.90;;;;;;5096332;28;20205;-75
2022/12/09 12:38:22;;;;;;;18.03;12.77;;;1.60;99.90;;;;;;5086135;28;20666;-72
2022/12/09 12:40:58;;;;;;;18.77;13.27;;;1.60;99.90;;;;;;5093026;28;20237;-74
2022/12/09 12:46:41;;;;;;;20.33;13.23;;;1.70;99.90;;;;;;5090747;28;20913;-73
2022/12/09 12:49:40;;;;;;;18.70;13.20;;;1.70;99.90;;;;;;5096572;28;20213;-73
2022/12/09 12:52:20;;;;;;;16.80;13.27;;;1.80;99.90;;;;;;5077799;28;20210;-74
2022/12/09 12:54:58;;;;;;;16.03;12.80;;;1.80;99.90;;;;;;5094227;28;20311;-73
2022/12/09 12:57:33;;;;;;;20.07;13.40;;;1.80;99.90;;;;;;5096599;28;20665;-73
2022/12/09 13:00:07;;;;;;;20.00;13.63;;;1.80;99.90;;;;;;5093982;28;20292;-73
2022/12/09 13:02:43;;;;;;;18.23;13.97;;;1.90;99.90;;;;;;5096290;28;21335;-73
2022/12/09 13:05:18;;;;;;;18.47;13.30;;;1.90;99.90;;;;;;5093018;28;20292;-73